sensor_id;sensor_type;location;lat;lon;timestamp;pressure;altitude;pressure_sealevel;temperature;humidity
77770;BME280;66961;51.482;9.160;2023-05-20T00:01:23;100103.78;;;8.70;71.41
77770;BME280;66961;51.482;9.160;2023-05-20T00:03:48;100109.63;;;8.74;71.33
77770;BME280;66961;51.482;9.160;2023-05-20T00:06:14;100105.59;;;8.70;71.20
77770;BME280;66961;51.482;9.160;2023-05-20T00:08:39;100101.00;;;8.72;71.12
77770;BME280;66961;51.482;9.160;2023-05-20T00:11:04;100101.53;;;8.75;70.67
77770;BME280;66961;51.482;9.160;2023-05-20T00:13:29;100103.47;;;8.83;71.05
77770;BME280;66961;51.482;9.160;2023-05-20T00:15:55;100090.25;;;8.83;71.34
77770;BME280;66961;51.482;9.160;2023-05-20T00:18:20;100098.19;;;8.83;71.53
77770;BME280;66961;51.482;9.160;2023-05-20T00:20:45;100100.97;;;8.81;71.09
77770;BME280;66961;51.482;9.160;2023-05-20T00:23:10;100099.44;;;8.79;71.05
77770;BME280;66961;51.482;9.160;2023-05-20T00:25:36;100089.16;;;8.76;70.81
77770;BME280;66961;51.482;9.160;2023-05-20T00:28:01;100091.66;;;8.77;70.93
77770;BME280;66961;51.482;9.160;2023-05-20T00:30:26;100091.25;;;8.72;72.07
77770;BME280;66961;51.482;9.160;2023-05-20T00:32:52;100088.50;;;8.64;72.10
77770;BME280;66961;51.482;9.160;2023-05-20T00:35:17;100087.78;;;8.62;72.02
77770;BME280;66961;51.482;9.160;2023-05-20T00:37:42;100086.69;;;8.65;71.99
77770;BME280;66961;51.482;9.160;2023-05-20T00:40:08;100081.25;;;8.66;72.07
77770;BME280;66961;51.482;9.160;2023-05-20T00:42:33;100068.03;;;8.66;71.61
77770;BME280;66961;51.482;9.160;2023-05-20T00:44:59;100063.84;;;8.73;71.60
77770;BME280;66961;51.482;9.160;2023-05-20T00:47:29;100072.19;;;8.78;71.12
77770;BME280;66961;51.482;9.160;2023-05-20T00:49:56;100078.53;;;8.85;71.27
77770;BME280;66961;51.482;9.160;2023-05-20T00:52:22;100068.09;;;8.84;71.00
77770;BME280;66961;51.482;9.160;2023-05-20T00:54:48;100067.53;;;8.90;71.00
77770;BME280;66961;51.482;9.160;2023-05-20T00:57:14;100071.69;;;8.92;71.84
77770;BME280;66961;51.482;9.160;2023-05-20T00:59:39;100070.72;;;8.93;71.21
77770;BME280;66961;51.482;9.160;2023-05-20T01:02:05;100066.53;;;9.01;71.13
77770;BME280;66961;51.482;9.160;2023-05-20T01:04:32;100057.59;;;9.02;70.62
77770;BME280;66961;51.482;9.160;2023-05-20T01:06:58;100069.31;;;8.99;70.90
77770;BME280;66961;51.482;9.160;2023-05-20T01:09:24;100072.78;;;9.00;71.62
77770;BME280;66961;51.482;9.160;2023-05-20T01:11:57;100075.00;;;9.04;70.86
77770;BME280;66961;51.482;9.160;2023-05-20T01:14:26;100067.75;;;9.06;71.16
77770;BME280;66961;51.482;9.160;2023-05-20T01:16:53;100068.84;;;9.13;70.49
77770;BME280;66961;51.482;9.160;2023-05-20T01:19:39;100068.78;;;9.23;70.56
77770;BME280;66961;51.482;9.160;2023-05-20T01:22:06;100071.69;;;9.29;70.33
77770;BME280;66961;51.482;9.160;2023-05-20T01:24:33;100078.88;;;9.37;69.85
77770;BME280;66961;51.482;9.160;2023-05-20T01:26:58;100061.19;;;9.38;69.07
77770;BME280;66961;51.482;9.160;2023-05-20T01:29:24;100066.13;;;9.50;69.77
77770;BME280;66961;51.482;9.160;2023-05-20T01:31:50;100062.88;;;9.56;69.72
77770;BME280;66961;51.482;9.160;2023-05-20T01:34:17;100061.91;;;9.57;69.14
77770;BME280;66961;51.482;9.160;2023-05-20T01:36:44;100063.97;;;9.63;69.26
77770;BME280;66961;51.482;9.160;2023-05-20T01:39:10;100065.56;;;9.74;68.89
77770;BME280;66961;51.482;9.160;2023-05-20T01:41:36;100060.66;;;9.79;67.97
77770;BME280;66961;51.482;9.160;2023-05-20T01:44:02;100052.25;;;9.84;68.05
77770;BME280;66961;51.482;9.160;2023-05-20T01:46:31;100059.41;;;9.91;68.17
77770;BME280;66961;51.482;9.160;2023-05-20T01:48:57;100051.31;;;9.93;68.22
77770;BME280;66961;51.482;9.160;2023-05-20T01:51:22;100041.81;;;9.82;68.20
77770;BME280;66961;51.482;9.160;2023-05-20T01:53:47;100056.16;;;9.98;68.87
77770;BME280;66961;51.482;9.160;2023-05-20T01:56:13;100059.34;;;10.01;69.49
77770;BME280;66961;51.482;9.160;2023-05-20T01:58:38;100050.94;;;10.06;68.39
77770;BME280;66961;51.482;9.160;2023-05-20T02:01:03;100044.97;;;10.04;67.76
77770;BME280;66961;51.482;9.160;2023-05-20T02:03:28;100041.19;;;10.06;67.94
77770;BME280;66961;51.482;9.160;2023-05-20T02:05:54;100036.13;;;10.13;68.94
77770;BME280;66961;51.482;9.160;2023-05-20T02:08:19;100049.22;;;10.14;68.88
77770;BME280;66961;51.482;9.160;2023-05-20T02:10:47;100051.56;;;10.17;68.43
77770;BME280;66961;51.482;9.160;2023-05-20T02:13:12;100049.06;;;10.16;68.35
77770;BME280;66961;51.482;9.160;2023-05-20T02:15:40;100048.63;;;10.20;68.69
77770;BME280;66961;51.482;9.160;2023-05-20T02:18:05;100043.59;;;10.17;68.04
77770;BME280;66961;51.482;9.160;2023-05-20T02:20:34;100036.63;;;10.16;67.81
77770;BME280;66961;51.482;9.160;2023-05-20T02:22:59;100041.50;;;10.21;68.28
77770;BME280;66961;51.482;9.160;2023-05-20T02:25:25;100036.44;;;10.27;68.32
77770;BME280;66961;51.482;9.160;2023-05-20T02:27:50;100029.25;;;10.20;68.13
77770;BME280;66961;51.482;9.160;2023-05-20T02:30:15;100043.72;;;10.25;67.96
77770;BME280;66961;51.482;9.160;2023-05-20T02:32:40;100038.25;;;10.27;68.05
77770;BME280;66961;51.482;9.160;2023-05-20T02:35:06;100038.47;;;10.34;67.90
77770;BME280;66961;51.482;9.160;2023-05-20T02:37:31;100031.81;;;10.30;67.74
77770;BME280;66961;51.482;9.160;2023-05-20T02:39:57;100029.22;;;10.38;67.59
77770;BME280;66961;51.482;9.160;2023-05-20T02:42:22;100030.91;;;10.39;67.48
77770;BME280;66961;51.482;9.160;2023-05-20T02:44:47;100038.84;;;10.39;68.03
77770;BME280;66961;51.482;9.160;2023-05-20T02:47:13;100021.53;;;10.26;67.58
77770;BME280;66961;51.482;9.160;2023-05-20T02:49:38;100022.88;;;10.31;68.04
77770;BME280;66961;51.482;9.160;2023-05-20T02:52:03;100029.84;;;10.32;68.72
77770;BME280;66961;51.482;9.160;2023-05-20T02:54:29;100030.00;;;10.30;68.07
77770;BME280;66961;51.482;9.160;2023-05-20T02:56:54;100039.91;;;10.28;68.20
77770;BME280;66961;51.482;9.160;2023-05-20T02:59:19;100048.75;;;10.19;69.23
77770;BME280;66961;51.482;9.160;2023-05-20T03:01:44;100045.38;;;10.26;68.75
77770;BME280;66961;51.482;9.160;2023-05-20T03:04:10;100043.72;;;10.25;69.69
77770;BME280;66961;51.482;9.160;2023-05-20T03:06:35;100032.19;;;10.17;69.74
77770;BME280;66961;51.482;9.160;2023-05-20T03:09:00;100041.66;;;10.19;70.27
77770;BME280;66961;51.482;9.160;2023-05-20T03:11:25;100032.84;;;10.19;70.42
77770;BME280;66961;51.482;9.160;2023-05-20T03:13:51;100045.81;;;10.22;70.22
77770;BME280;66961;51.482;9.160;2023-05-20T03:16:16;100021.16;;;10.21;70.38
77770;BME280;66961;51.482;9.160;2023-05-20T03:18:41;100035.44;;;10.28;69.65
77770;BME280;66961;51.482;9.160;2023-05-20T03:21:07;100028.50;;;10.27;70.24
77770;BME280;66961;51.482;9.160;2023-05-20T03:23:32;100036.59;;;10.26;70.17
77770;BME280;66961;51.482;9.160;2023-05-20T03:25:58;100045.81;;;10.22;71.09
77770;BME280;66961;51.482;9.160;2023-05-20T03:28:23;100028.13;;;10.22;71.09
77770;BME280;66961;51.482;9.160;2023-05-20T03:30:48;100033.63;;;10.11;70.78
77770;BME280;66961;51.482;9.160;2023-05-20T03:33:13;100041.22;;;10.24;70.99
77770;BME280;66961;51.482;9.160;2023-05-20T03:35:39;100035.66;;;10.17;71.27
77770;BME280;66961;51.482;9.160;2023-05-20T03:38:04;100043.03;;;10.23;71.43
77770;BME280;66961;51.482;9.160;2023-05-20T03:40:29;100045.00;;;10.21;71.43
77770;BME280;66961;51.482;9.160;2023-05-20T03:42:55;100040.38;;;10.23;71.46
77770;BME280;66961;51.482;9.160;2023-05-20T03:45:20;100030.75;;;10.22;71.21
77770;BME280;66961;51.482;9.160;2023-05-20T03:47:45;100033.63;;;10.29;71.13
77770;BME280;66961;51.482;9.160;2023-05-20T03:50:10;100032.66;;;10.30;71.34
77770;BME280;66961;51.482;9.160;2023-05-20T03:52:36;100030.38;;;10.35;70.74
77770;BME280;66961;51.482;9.160;2023-05-20T03:55:01;100031.66;;;10.31;71.11
77770;BME280;66961;51.482;9.160;2023-05-20T03:57:26;100023.72;;;10.31;71.39
77770;BME280;66961;51.482;9.160;2023-05-20T03:59:52;100023.41;;;10.34;71.34
77770;BME280;66961;51.482;9.160;2023-05-20T04:02:17;100017.28;;;10.34;71.03
77770;BME280;66961;51.482;9.160;2023-05-20T04:04:42;100022.41;;;10.35;71.16
77770;BME280;66961;51.482;9.160;2023-05-20T04:07:09;100023.72;;;10.31;71.73
77770;BME280;66961;51.482;9.160;2023-05-20T04:09:36;100024.47;;;10.23;71.58
77770;BME280;66961;51.482;9.160;2023-05-20T04:12:01;100012.91;;;10.24;71.88
77770;BME280;66961;51.482;9.160;2023-05-20T04:14:27;100023.19;;;10.27;71.72
77770;BME280;66961;51.482;9.160;2023-05-20T04:16:52;100026.00;;;10.26;71.63
77770;BME280;66961;51.482;9.160;2023-05-20T04:19:17;100010.09;;;10.26;71.67
77770;BME280;66961;51.482;9.160;2023-05-20T04:21:43;100016.91;;;10.28;72.05
77770;BME280;66961;51.482;9.160;2023-05-20T04:24:08;100005.00;;;10.33;71.41
77770;BME280;66961;51.482;9.160;2023-05-20T04:26:33;100005.16;;;10.31;71.98
77770;BME280;66961;51.482;9.160;2023-05-20T04:28:59;100017.78;;;10.37;71.94
77770;BME280;66961;51.482;9.160;2023-05-20T04:31:24;100018.25;;;10.33;71.91
77770;BME280;66961;51.482;9.160;2023-05-20T04:33:49;100018.66;;;10.46;71.49
77770;BME280;66961;51.482;9.160;2023-05-20T04:36:14;100026.28;;;10.49;71.45
77770;BME280;66961;51.482;9.160;2023-05-20T04:38:40;100026.28;;;10.49;71.53
77770;BME280;66961;51.482;9.160;2023-05-20T04:41:06;100025.88;;;10.61;71.23
77770;BME280;66961;51.482;9.160;2023-05-20T04:43:31;100023.97;;;10.72;70.98
77770;BME280;66961;51.482;9.160;2023-05-20T04:45:56;100028.75;;;10.68;70.23
77770;BME280;66961;51.482;9.160;2023-05-20T04:48:22;100027.66;;;10.79;69.89
77770;BME280;66961;51.482;9.160;2023-05-20T04:50:48;100009.88;;;10.71;70.15
77770;BME280;66961;51.482;9.160;2023-05-20T04:53:14;100028.47;;;10.79;69.82
77770;BME280;66961;51.482;9.160;2023-05-20T04:55:40;100032.94;;;10.79;70.15
77770;BME280;66961;51.482;9.160;2023-05-20T04:58:05;100030.47;;;10.77;69.73
77770;BME280;66961;51.482;9.160;2023-05-20T05:00:30;100034.78;;;10.78;70.67
77770;BME280;66961;51.482;9.160;2023-05-20T05:02:56;100030.97;;;10.81;70.29
77770;BME280;66961;51.482;9.160;2023-05-20T05:05:21;100029.66;;;10.85;70.93
77770;BME280;66961;51.482;9.160;2023-05-20T05:07:46;100028.53;;;10.87;70.74
77770;BME280;66961;51.482;9.160;2023-05-20T05:10:12;100031.19;;;10.87;70.59
77770;BME280;66961;51.482;9.160;2023-05-20T05:12:37;100030.50;;;10.85;70.73
77770;BME280;66961;51.482;9.160;2023-05-20T05:15:03;100028.53;;;10.87;70.81
77770;BME280;66961;51.482;9.160;2023-05-20T05:17:28;100033.50;;;10.90;70.18
77770;BME280;66961;51.482;9.160;2023-05-20T05:19:53;100032.19;;;10.94;70.73
77770;BME280;66961;51.482;9.160;2023-05-20T05:22:19;100017.91;;;10.87;70.75
77770;BME280;66961;51.482;9.160;2023-05-20T05:24:44;100026.19;;;10.84;70.84
77770;BME280;66961;51.482;9.160;2023-05-20T05:27:09;100031.34;;;10.94;70.29
77770;BME280;66961;51.482;9.160;2023-05-20T05:29:35;100029.22;;;10.98;70.63
77770;BME280;66961;51.482;9.160;2023-05-20T05:32:00;100032.84;;;10.97;71.10
77770;BME280;66961;51.482;9.160;2023-05-20T05:34:25;100024.41;;;11.01;70.34
77770;BME280;66961;51.482;9.160;2023-05-20T05:36:50;100025.09;;;11.03;70.32
77770;BME280;66961;51.482;9.160;2023-05-20T05:39:16;100023.59;;;11.01;70.53
77770;BME280;66961;51.482;9.160;2023-05-20T05:41:41;100023.44;;;11.02;70.33
77770;BME280;66961;51.482;9.160;2023-05-20T05:44:06;100021.97;;;11.08;70.37
77770;BME280;66961;51.482;9.160;2023-05-20T05:46:32;100014.00;;;11.08;70.92
77770;BME280;66961;51.482;9.160;2023-05-20T05:48:57;100015.31;;;11.04;69.92
77770;BME280;66961;51.482;9.160;2023-05-20T05:51:22;100018.16;;;11.10;70.18
77770;BME280;66961;51.482;9.160;2023-05-20T05:53:47;100006.72;;;11.10;70.32
77770;BME280;66961;51.482;9.160;2023-05-20T05:56:13;100012.53;;;11.13;70.35
77770;BME280;66961;51.482;9.160;2023-05-20T05:58:38;100025.53;;;11.24;70.36
77770;BME280;66961;51.482;9.160;2023-05-20T06:01:03;100022.91;;;11.33;70.21
77770;BME280;66961;51.482;9.160;2023-05-20T06:03:29;100021.72;;;11.27;69.89
77770;BME280;66961;51.482;9.160;2023-05-20T06:05:54;100022.19;;;11.22;70.06
77770;BME280;66961;51.482;9.160;2023-05-20T06:08:20;100022.53;;;11.27;70.35
77770;BME280;66961;51.482;9.160;2023-05-20T06:10:49;100037.00;;;11.33;70.15
77770;BME280;66961;51.482;9.160;2023-05-20T06:13:15;100029.22;;;11.40;69.88
77770;BME280;66961;51.482;9.160;2023-05-20T06:15:40;100027.41;;;11.40;69.74
77770;BME280;66961;51.482;9.160;2023-05-20T06:18:05;100029.34;;;11.30;70.68
77770;BME280;66961;51.482;9.160;2023-05-20T06:20:31;100027.56;;;11.39;70.03
77770;BME280;66961;51.482;9.160;2023-05-20T06:22:56;100028.06;;;11.50;69.86
77770;BME280;66961;51.482;9.160;2023-05-20T06:25:21;100022.94;;;11.57;69.51
77770;BME280;66961;51.482;9.160;2023-05-20T06:27:46;100025.09;;;11.61;69.39
77770;BME280;66961;51.482;9.160;2023-05-20T06:30:12;100027.59;;;11.63;70.00
77770;BME280;66961;51.482;9.160;2023-05-20T06:32:37;100020.00;;;11.76;69.11
77770;BME280;66961;51.482;9.160;2023-05-20T06:35:03;100016.97;;;11.63;69.23
77770;BME280;66961;51.482;9.160;2023-05-20T06:37:28;100024.53;;;11.84;69.26
77770;BME280;66961;51.482;9.160;2023-05-20T06:39:53;100020.72;;;11.95;68.74
77770;BME280;66961;51.482;9.160;2023-05-20T06:42:19;100009.72;;;11.98;68.60
77770;BME280;66961;51.482;9.160;2023-05-20T06:44:45;100015.22;;;12.12;69.05
77770;BME280;66961;51.482;9.160;2023-05-20T06:47:12;100001.94;;;12.12;68.53
77770;BME280;66961;51.482;9.160;2023-05-20T06:49:38;100006.25;;;12.21;68.93
77770;BME280;66961;51.482;9.160;2023-05-20T06:52:04;100009.22;;;12.35;68.83
77770;BME280;66961;51.482;9.160;2023-05-20T06:54:29;100004.25;;;12.32;67.70
77770;BME280;66961;51.482;9.160;2023-05-20T06:56:54;100002.91;;;12.44;67.35
77770;BME280;66961;51.482;9.160;2023-05-20T06:59:20;100000.38;;;12.50;68.16
77770;BME280;66961;51.482;9.160;2023-05-20T07:01:45;99988.84;;;12.74;67.17
77770;BME280;66961;51.482;9.160;2023-05-20T07:04:10;99999.44;;;12.90;66.92
77770;BME280;66961;51.482;9.160;2023-05-20T07:06:35;99998.53;;;13.06;66.90
77770;BME280;66961;51.482;9.160;2023-05-20T07:09:01;99992.19;;;13.07;66.29
77770;BME280;66961;51.482;9.160;2023-05-20T07:11:26;99992.78;;;13.34;65.88
77770;BME280;66961;51.482;9.160;2023-05-20T07:13:51;99993.66;;;13.26;65.48
77770;BME280;66961;51.482;9.160;2023-05-20T07:16:17;100000.41;;;13.37;65.43
77770;BME280;66961;51.482;9.160;2023-05-20T07:18:42;99992.25;;;13.38;64.59
77770;BME280;66961;51.482;9.160;2023-05-20T07:21:07;99998.06;;;13.42;64.82
77770;BME280;66961;51.482;9.160;2023-05-20T07:23:32;99988.25;;;13.42;65.04
77770;BME280;66961;51.482;9.160;2023-05-20T07:25:58;99991.72;;;13.43;64.83
77770;BME280;66961;51.482;9.160;2023-05-20T07:28:23;99980.13;;;13.36;65.13
77770;BME280;66961;51.482;9.160;2023-05-20T07:30:48;99967.78;;;13.43;64.93
77770;BME280;66961;51.482;9.160;2023-05-20T07:33:13;99977.53;;;13.50;64.79
77770;BME280;66961;51.482;9.160;2023-05-20T07:35:39;99983.50;;;13.52;65.20
77770;BME280;66961;51.482;9.160;2023-05-20T07:38:04;99986.06;;;13.46;64.83
77770;BME280;66961;51.482;9.160;2023-05-20T07:40:29;99983.09;;;13.41;65.79
77770;BME280;66961;51.482;9.160;2023-05-20T07:42:54;99968.47;;;13.37;65.56
77770;BME280;66961;51.482;9.160;2023-05-20T07:45:20;99973.97;;;13.58;65.66
77770;BME280;66961;51.482;9.160;2023-05-20T07:47:45;99968.13;;;13.63;65.25
77770;BME280;66961;51.482;9.160;2023-05-20T07:50:10;99974.28;;;13.86;65.71
77770;BME280;66961;51.482;9.160;2023-05-20T07:52:36;99963.16;;;13.82;64.46
77770;BME280;66961;51.482;9.160;2023-05-20T07:55:01;99959.53;;;13.98;64.82
77770;BME280;66961;51.482;9.160;2023-05-20T07:57:26;99956.13;;;14.04;63.90
77770;BME280;66961;51.482;9.160;2023-05-20T07:59:51;99947.72;;;14.30;63.60
77770;BME280;66961;51.482;9.160;2023-05-20T08:02:17;99957.66;;;14.36;63.67
77770;BME280;66961;51.482;9.160;2023-05-20T08:04:42;99943.44;;;14.44;63.33
77770;BME280;66961;51.482;9.160;2023-05-20T08:07:07;99946.28;;;14.42;62.58
77770;BME280;66961;51.482;9.160;2023-05-20T08:09:33;99956.38;;;14.62;63.43
77770;BME280;66961;51.482;9.160;2023-05-20T08:11:58;99955.56;;;14.76;62.01
77770;BME280;66961;51.482;9.160;2023-05-20T08:14:23;99951.50;;;14.95;61.90
77770;BME280;66961;51.482;9.160;2023-05-20T08:16:49;99952.44;;;15.23;60.87
77770;BME280;66961;51.482;9.160;2023-05-20T08:19:14;99953.97;;;15.32;60.38
77770;BME280;66961;51.482;9.160;2023-05-20T08:21:39;99961.13;;;15.46;59.50
77770;BME280;66961;51.482;9.160;2023-05-20T08:24:05;99953.53;;;16.14;58.27
77770;BME280;66961;51.482;9.160;2023-05-20T08:26:30;99947.44;;;16.27;58.06
77770;BME280;66961;51.482;9.160;2023-05-20T08:28:55;99948.16;;;16.07;57.44
77770;BME280;66961;51.482;9.160;2023-05-20T08:31:21;99950.19;;;16.05;58.32
77770;BME280;66961;51.482;9.160;2023-05-20T08:33:46;99954.22;;;15.95;59.29
77770;BME280;66961;51.482;9.160;2023-05-20T08:36:11;99943.38;;;16.03;59.09
77770;BME280;66961;51.482;9.160;2023-05-20T08:38:36;99951.91;;;15.92;58.66
77770;BME280;66961;51.482;9.160;2023-05-20T08:41:02;99940.41;;;16.19;58.02
77770;BME280;66961;51.482;9.160;2023-05-20T08:43:27;99939.75;;;16.10;57.95
77770;BME280;66961;51.482;9.160;2023-05-20T08:45:52;99943.47;;;16.16;58.12
77770;BME280;66961;51.482;9.160;2023-05-20T08:48:18;99935.25;;;15.89;57.74
77770;BME280;66961;51.482;9.160;2023-05-20T08:50:48;99951.28;;;15.89;59.44
77770;BME280;66961;51.482;9.160;2023-05-20T08:53:14;99946.56;;;15.92;59.04
77770;BME280;66961;51.482;9.160;2023-05-20T08:55:45;99938.44;;;15.78;58.49
77770;BME280;66961;51.482;9.160;2023-05-20T08:58:14;99943.00;;;15.84;57.79
77770;BME280;66961;51.482;9.160;2023-05-20T09:00:39;99942.31;;;15.97;59.36
77770;BME280;66961;51.482;9.160;2023-05-20T09:03:05;99939.97;;;16.15;58.45
77770;BME280;66961;51.482;9.160;2023-05-20T09:05:30;99940.34;;;16.12;58.00
77770;BME280;66961;51.482;9.160;2023-05-20T09:08:08;99924.75;;;16.16;58.60
77770;BME280;66961;51.482;9.160;2023-05-20T09:10:35;99933.44;;;16.52;56.86
77770;BME280;66961;51.482;9.160;2023-05-20T09:13:01;99928.84;;;16.81;56.80
77770;BME280;66961;51.482;9.160;2023-05-20T09:15:26;99931.94;;;16.78;55.60
77770;BME280;66961;51.482;9.160;2023-05-20T09:17:52;99936.47;;;16.77;56.93
77770;BME280;66961;51.482;9.160;2023-05-20T09:20:20;99941.22;;;16.82;56.39
77770;BME280;66961;51.482;9.160;2023-05-20T09:22:46;99929.09;;;16.86;56.50
77770;BME280;66961;51.482;9.160;2023-05-20T09:25:18;99939.09;;;17.25;55.58
77770;BME280;66961;51.482;9.160;2023-05-20T09:27:44;99936.88;;;17.42;56.56
77770;BME280;66961;51.482;9.160;2023-05-20T09:30:09;99937.69;;;17.36;54.68
77770;BME280;66961;51.482;9.160;2023-05-20T09:32:35;99926.16;;;17.35;54.23
77770;BME280;66961;51.482;9.160;2023-05-20T09:35:01;99931.31;;;17.43;54.93
77770;BME280;66961;51.482;9.160;2023-05-20T09:37:28;99938.75;;;17.41;53.95
77770;BME280;66961;51.482;9.160;2023-05-20T09:39:59;99934.50;;;17.67;53.67
77770;BME280;66961;51.482;9.160;2023-05-20T09:42:41;99921.28;;;17.72;53.84
77770;BME280;66961;51.482;9.160;2023-05-20T09:45:08;99936.53;;;17.65;54.58
77770;BME280;66961;51.482;9.160;2023-05-20T09:47:34;99940.41;;;17.49;53.31
77770;BME280;66961;51.482;9.160;2023-05-20T09:50:00;99943.66;;;17.31;53.92
77770;BME280;66961;51.482;9.160;2023-05-20T09:52:25;99944.50;;;16.77;54.22
77770;BME280;66961;51.482;9.160;2023-05-20T09:54:52;99941.69;;;16.92;53.90
77770;BME280;66961;51.482;9.160;2023-05-20T09:57:18;99939.13;;;16.77;54.15
77770;BME280;66961;51.482;9.160;2023-05-20T09:59:45;99929.44;;;16.76;54.22
77770;BME280;66961;51.482;9.160;2023-05-20T10:02:11;99942.22;;;16.74;55.37
77770;BME280;66961;51.482;9.160;2023-05-20T10:04:41;99937.31;;;16.50;54.51
77770;BME280;66961;51.482;9.160;2023-05-20T10:13:48;99934.41;;;16.79;55.01
77770;BME280;66961;51.482;9.160;2023-05-20T10:17:00;99927.88;;;16.54;55.42
77770;BME280;66961;51.482;9.160;2023-05-20T10:19:31;99933.16;;;16.41;55.98
77770;BME280;66961;51.482;9.160;2023-05-20T10:22:03;99932.28;;;16.34;56.23
77770;BME280;66961;51.482;9.160;2023-05-20T10:24:33;99925.81;;;16.21;56.96
77770;BME280;66961;51.482;9.160;2023-05-20T10:27:06;99925.13;;;16.13;57.49
77770;BME280;66961;51.482;9.160;2023-05-20T10:29:45;99924.34;;;16.19;57.62
77770;BME280;66961;51.482;9.160;2023-05-20T10:32:23;99924.44;;;16.32;57.51
77770;BME280;66961;51.482;9.160;2023-05-20T10:34:49;99918.19;;;16.18;58.40
77770;BME280;66961;51.482;9.160;2023-05-20T10:37:26;99922.34;;;16.28;57.73
77770;BME280;66961;51.482;9.160;2023-05-20T10:40:02;99911.75;;;16.13;57.26
77770;BME280;66961;51.482;9.160;2023-05-20T10:42:28;99918.75;;;16.42;58.08
77770;BME280;66961;51.482;9.160;2023-05-20T10:44:53;99919.25;;;16.59;56.95
77770;BME280;66961;51.482;9.160;2023-05-20T10:47:18;99910.13;;;16.81;56.64
77770;BME280;66961;51.482;9.160;2023-05-20T10:49:44;99909.34;;;16.94;55.90
77770;BME280;66961;51.482;9.160;2023-05-20T10:52:10;99908.16;;;17.16;55.29
77770;BME280;66961;51.482;9.160;2023-05-20T10:54:41;99909.03;;;17.30;55.25
77770;BME280;66961;51.482;9.160;2023-05-20T10:57:07;99915.88;;;17.52;54.58
77770;BME280;66961;51.482;9.160;2023-05-20T10:59:33;99907.03;;;17.65;53.57
77770;BME280;66961;51.482;9.160;2023-05-20T11:02:00;99906.63;;;17.61;52.58
77770;BME280;66961;51.482;9.160;2023-05-20T11:04:27;99891.13;;;17.43;53.75
77770;BME280;66961;51.482;9.160;2023-05-20T11:06:53;99889.09;;;17.59;53.87
77770;BME280;66961;51.482;9.160;2023-05-20T11:09:18;99879.59;;;17.56;54.56
77770;BME280;66961;51.482;9.160;2023-05-20T11:11:43;99875.88;;;17.44;55.20
77770;BME280;66961;51.482;9.160;2023-05-20T11:14:09;99878.59;;;17.83;52.68
77770;BME280;66961;51.482;9.160;2023-05-20T11:16:34;99867.66;;;17.98;53.19
77770;BME280;66961;51.482;9.160;2023-05-20T11:19:00;99870.34;;;18.05;53.11
77770;BME280;66961;51.482;9.160;2023-05-20T11:21:25;99863.97;;;17.66;53.30
77770;BME280;66961;51.482;9.160;2023-05-20T11:23:50;99868.47;;;17.92;53.03
77770;BME280;66961;51.482;9.160;2023-05-20T11:26:15;99863.53;;;17.76;52.79
77770;BME280;66961;51.482;9.160;2023-05-20T11:28:41;99871.06;;;18.45;52.78
77770;BME280;66961;51.482;9.160;2023-05-20T11:31:06;99871.66;;;18.67;51.64
77770;BME280;66961;51.482;9.160;2023-05-20T11:33:32;99867.53;;;18.64;52.81
77770;BME280;66961;51.482;9.160;2023-05-20T11:35:57;99876.81;;;18.68;51.58
77770;BME280;66961;51.482;9.160;2023-05-20T11:38:22;99871.00;;;18.71;52.25
77770;BME280;66961;51.482;9.160;2023-05-20T11:40:52;99865.03;;;18.69;52.20
77770;BME280;66961;51.482;9.160;2023-05-20T11:43:18;99866.44;;;18.72;52.75
77770;BME280;66961;51.482;9.160;2023-05-20T11:45:46;99860.09;;;19.04;50.57
77770;BME280;66961;51.482;9.160;2023-05-20T11:48:12;99854.13;;;18.44;50.98
77770;BME280;66961;51.482;9.160;2023-05-20T11:50:39;99855.47;;;18.09;51.59
77770;BME280;66961;51.482;9.160;2023-05-20T11:53:09;99853.00;;;17.94;51.93
77770;BME280;66961;51.482;9.160;2023-05-20T11:55:49;99867.88;;;17.97;52.12
77770;BME280;66961;51.482;9.160;2023-05-20T11:58:17;99846.63;;;17.62;53.44
77770;BME280;66961;51.482;9.160;2023-05-20T12:00:42;99847.44;;;17.49;53.09
77770;BME280;66961;51.482;9.160;2023-05-20T12:03:08;99847.63;;;17.28;53.98
77770;BME280;66961;51.482;9.160;2023-05-20T12:05:33;99849.25;;;17.16;55.22
77770;BME280;66961;51.482;9.160;2023-05-20T12:07:58;99856.03;;;17.05;55.92
77770;BME280;66961;51.482;9.160;2023-05-20T12:10:24;99843.41;;;16.86;55.91
77770;BME280;66961;51.482;9.160;2023-05-20T12:12:49;99833.75;;;16.92;56.69
77770;BME280;66961;51.482;9.160;2023-05-20T12:15:14;99819.09;;;16.81;56.29
77770;BME280;66961;51.482;9.160;2023-05-20T12:17:45;99831.22;;;16.70;56.98
77770;BME280;66961;51.482;9.160;2023-05-20T12:20:12;99830.13;;;16.58;57.62
77770;BME280;66961;51.482;9.160;2023-05-20T12:22:38;99836.50;;;16.57;58.60
77770;BME280;66961;51.482;9.160;2023-05-20T12:25:03;99842.13;;;16.69;57.83
77770;BME280;66961;51.482;9.160;2023-05-20T12:27:29;99836.94;;;16.61;57.64
77770;BME280;66961;51.482;9.160;2023-05-20T12:29:54;99834.63;;;16.51;57.36
77770;BME280;66961;51.482;9.160;2023-05-20T12:32:19;99837.13;;;16.59;58.06
77770;BME280;66961;51.482;9.160;2023-05-20T12:34:44;99836.56;;;16.70;56.95
77770;BME280;66961;51.482;9.160;2023-05-20T12:37:10;99820.50;;;16.70;57.78
77770;BME280;66961;51.482;9.160;2023-05-20T12:39:35;99826.72;;;16.84;57.36
77770;BME280;66961;51.482;9.160;2023-05-20T12:42:00;99832.91;;;16.84;57.44
77770;BME280;66961;51.482;9.160;2023-05-20T12:44:26;99831.66;;;16.80;58.61
77770;BME280;66961;51.482;9.160;2023-05-20T12:46:53;99830.03;;;16.86;57.30
77770;BME280;66961;51.482;9.160;2023-05-20T12:49:18;99836.97;;;16.67;58.14
77770;BME280;66961;51.482;9.160;2023-05-20T12:51:43;99824.84;;;16.78;57.63
77770;BME280;66961;51.482;9.160;2023-05-20T12:54:09;99821.72;;;16.68;57.78
77770;BME280;66961;51.482;9.160;2023-05-20T12:56:34;99822.97;;;16.65;58.71